sensor_id;sensor_type;location;lat;lon;timestamp;pressure;altitude;pressure_sealevel;temperature;humidity
22047;BME280;11187;49.412;20.956;2023-04-08T00:01:53;95125.75;;;-0.28;100.00
22047;BME280;11187;49.412;20.956;2023-04-08T00:04:26;95119.81;;;-0.30;100.00
22047;BME280;11187;49.412;20.956;2023-04-08T00:07:13;95118.97;;;-0.30;100.00
22047;BME280;11187;49.412;20.956;2023-04-08T00:09:46;95119.69;;;-0.36;100.00
22047;BME280;11187;49.412;20.956;2023-04-08T00:12:33;95122.13;;;-0.40;100.00
22047;BME280;11187;49.412;20.956;2023-04-08T00:15:06;95118.66;;;-0.44;100.00
22047;BME280;11187;49.412;20.956;2023-04-08T00:17:55;95116.88;;;-0.48;100.00
22047;BME280;11187;49.412;20.956;2023-04-08T00:20:28;95121.91;;;-0.50;100.00
22047;BME280;11187;49.412;20.956;2023-04-08T00:23:15;95110.84;;;-0.55;100.00
22047;BME280;11187;49.412;20.956;2023-04-08T00:25:48;95119.16;;;-0.59;100.00
22047;BME280;11187;49.412;20.956;2023-04-08T00:28:35;95118.19;;;-0.64;100.00
22047;BME280;11187;49.412;20.956;2023-04-08T00:31:08;95121.41;;;-0.68;100.00
22047;BME280;11187;49.412;20.956;2023-04-08T00:33:55;95119.69;;;-0.71;100.00
22047;BME280;11187;49.412;20.956;2023-04-08T00:36:28;95120.56;;;-0.70;100.00
22047;BME280;11187;49.412;20.956;2023-04-08T00:39:15;95124.69;;;-0.72;100.00
22047;BME280;11187;49.412;20.956;2023-04-08T00:41:48;95123.81;;;-0.74;100.00
22047;BME280;11187;49.412;20.956;2023-04-08T00:44:36;95125.47;;;-0.75;100.00
22047;BME280;11187;49.412;20.956;2023-04-08T00:47:13;95125.38;;;-0.78;100.00
22047;BME280;11187;49.412;20.956;2023-04-08T00:50:01;95132.06;;;-0.78;100.00
22047;BME280;11187;49.412;20.956;2023-04-08T00:52:34;95133.81;;;-0.76;100.00
22047;BME280;11187;49.412;20.956;2023-04-08T00:55:21;95131.28;;;-0.76;100.00
22047;BME280;11187;49.412;20.956;2023-04-08T00:57:55;95131.34;;;-0.74;100.00
22047;BME280;11187;49.412;20.956;2023-04-08T01:00:49;95130.63;;;-0.69;100.00
22047;BME280;11187;49.412;20.956;2023-04-08T01:03:38;95140.69;;;-0.69;100.00
22047;BME280;11187;49.412;20.956;2023-04-08T01:06:37;95135.72;;;-0.67;100.00
22047;BME280;11187;49.412;20.956;2023-04-08T01:09:18;95133.16;;;-0.69;100.00
22047;BME280;11187;49.412;20.956;2023-04-08T01:12:20;95141.63;;;-0.65;100.00
22047;BME280;11187;49.412;20.956;2023-04-08T01:15:00;95137.50;;;-0.61;100.00
22047;BME280;11187;49.412;20.956;2023-04-08T01:17:52;95135.03;;;-0.60;100.00
22047;BME280;11187;49.412;20.956;2023-04-08T01:20:27;95133.47;;;-0.56;100.00
22047;BME280;11187;49.412;20.956;2023-04-08T01:26:37;95143.53;;;-0.55;100.00
22047;BME280;11187;49.412;20.956;2023-04-08T01:29:11;95142.75;;;-0.52;100.00
22047;BME280;11187;49.412;20.956;2023-04-08T01:32:00;95141.06;;;-0.53;100.00
22047;BME280;11187;49.412;20.956;2023-04-08T01:34:35;95136.09;;;-0.52;100.00
22047;BME280;11187;49.412;20.956;2023-04-08T01:37:25;95136.97;;;-0.50;100.00
22047;BME280;11187;49.412;20.956;2023-04-08T01:40:01;95136.09;;;-0.50;100.00
22047;BME280;11187;49.412;20.956;2023-04-08T01:42:51;95137.81;;;-0.49;100.00
22047;BME280;11187;49.412;20.956;2023-04-08T01:45:26;95134.41;;;-0.51;100.00
22047;BME280;11187;49.412;20.956;2023-04-08T01:48:14;95148.63;;;-0.53;100.00
22047;BME280;11187;49.412;20.956;2023-04-08T01:50:48;95141.84;;;-0.56;100.00
22047;BME280;11187;49.412;20.956;2023-04-08T01:53:46;95143.47;;;-0.58;100.00
22047;BME280;11187;49.412;20.956;2023-04-08T01:56:41;95148.44;;;-0.61;100.00
22047;BME280;11187;49.412;20.956;2023-04-08T01:59:18;95148.38;;;-0.63;100.00
22047;BME280;11187;49.412;20.956;2023-04-08T02:02:10;95143.31;;;-0.64;100.00
22047;BME280;11187;49.412;20.956;2023-04-08T02:04:45;95147.44;;;-0.68;100.00
22047;BME280;11187;49.412;20.956;2023-04-08T02:07:43;95149.00;;;-0.71;100.00
22047;BME280;11187;49.412;20.956;2023-04-08T02:10:41;95150.63;;;-0.73;100.00
22047;BME280;11187;49.412;20.956;2023-04-08T02:13:14;95153.88;;;-0.77;100.00
22047;BME280;11187;49.412;20.956;2023-04-08T02:16:07;95155.44;;;-0.82;100.00
22047;BME280;11187;49.412;20.956;2023-04-08T02:18:45;95160.38;;;-0.86;100.00
22047;BME280;11187;49.412;20.956;2023-04-08T02:21:43;95160.34;;;-0.87;100.00
22047;BME280;11187;49.412;20.956;2023-04-08T02:24:19;95173.69;;;-0.90;100.00
22047;BME280;11187;49.412;20.956;2023-04-08T02:27:09;95167.69;;;-0.93;100.00
22047;BME280;11187;49.412;20.956;2023-04-08T02:29:43;95180.16;;;-0.98;100.00
22047;BME280;11187;49.412;20.956;2023-04-08T02:32:32;95180.00;;;-1.04;100.00
22047;BME280;11187;49.412;20.956;2023-04-08T02:35:08;95171.41;;;-1.12;100.00
22047;BME280;11187;49.412;20.956;2023-04-08T02:37:59;95174.59;;;-1.18;100.00
22047;BME280;11187;49.412;20.956;2023-04-08T02:40:33;95175.31;;;-1.22;100.00
22047;BME280;11187;49.412;20.956;2023-04-08T02:43:27;95176.00;;;-1.28;100.00
22047;BME280;11187;49.412;20.956;2023-04-08T02:46:07;95179.19;;;-1.33;100.00
22047;BME280;11187;49.412;20.956;2023-04-08T02:49:01;95176.59;;;-1.36;100.00
22047;BME280;11187;49.412;20.956;2023-04-08T02:51:34;95192.41;;;-1.39;100.00
22047;BME280;11187;49.412;20.956;2023-04-08T02:54:21;95194.03;;;-1.41;100.00
22047;BME280;11187;49.412;20.956;2023-04-08T02:56:54;95201.50;;;-1.44;100.00
22047;BME280;11187;49.412;20.956;2023-04-08T02:59:50;95193.88;;;-1.47;100.00
22047;BME280;11187;49.412;20.956;2023-04-08T03:02:44;95192.13;;;-1.50;100.00
22047;BME280;11187;49.412;20.956;2023-04-08T03:05:20;95187.00;;;-1.53;100.00
22047;BME280;11187;49.412;20.956;2023-04-08T03:08:07;95194.53;;;-1.53;100.00
22047;BME280;11187;49.412;20.956;2023-04-08T03:10:40;95192.00;;;-1.54;100.00
22047;BME280;11187;49.412;20.956;2023-04-08T03:13:29;95188.66;;;-1.53;100.00
22047;BME280;11187;49.412;20.956;2023-04-08T03:16:03;95196.13;;;-1.56;100.00
22047;BME280;11187;49.412;20.956;2023-04-08T03:18:51;95195.13;;;-1.61;100.00
22047;BME280;11187;49.412;20.956;2023-04-08T03:21:26;95198.41;;;-1.64;100.00
22047;BME280;11187;49.412;20.956;2023-04-08T03:24:13;95202.56;;;-1.64;100.00
22047;BME280;11187;49.412;20.956;2023-04-08T03:26:46;95199.88;;;-1.71;100.00
22047;BME280;11187;49.412;20.956;2023-04-08T03:29:33;95201.47;;;-1.73;100.00
22047;BME280;11187;49.412;20.956;2023-04-08T03:32:06;95202.22;;;-1.77;100.00
22047;BME280;11187;49.412;20.956;2023-04-08T03:34:53;95213.03;;;-1.79;100.00
22047;BME280;11187;49.412;20.956;2023-04-08T03:37:26;95208.97;;;-1.74;100.00
22047;BME280;11187;49.412;20.956;2023-04-08T03:40:20;95219.88;;;-1.74;100.00
22047;BME280;11187;49.412;20.956;2023-04-08T03:43:14;95204.81;;;-1.74;100.00
22047;BME280;11187;49.412;20.956;2023-04-08T03:46:08;95211.50;;;-1.73;100.00
22047;BME280;11187;49.412;20.956;2023-04-08T03:49:02;95219.88;;;-1.74;100.00
22047;BME280;11187;49.412;20.956;2023-04-08T03:51:35;95214.72;;;-1.78;100.00
22047;BME280;11187;49.412;20.956;2023-04-08T03:54:29;95225.56;;;-1.79;100.00
22047;BME280;11187;49.412;20.956;2023-04-08T03:57:02;95223.13;;;-1.76;100.00
22047;BME280;11187;49.412;20.956;2023-04-08T03:59:57;95220.72;;;-1.73;100.00
22047;BME280;11187;49.412;20.956;2023-04-08T04:02:51;95215.56;;;-1.78;100.00
22047;BME280;11187;49.412;20.956;2023-04-08T04:05:24;95220.56;;;-1.78;100.00
22047;BME280;11187;49.412;20.956;2023-04-08T04:08:11;95223.06;;;-1.79;100.00
22047;BME280;11187;49.412;20.956;2023-04-08T04:10:44;95216.25;;;-1.82;100.00
22047;BME280;11187;49.412;20.956;2023-04-08T04:13:38;95217.00;;;-1.86;100.00
22047;BME280;11187;49.412;20.956;2023-04-08T04:16:32;95226.97;;;-1.87;100.00
22047;BME280;11187;49.412;20.956;2023-04-08T04:19:05;95230.34;;;-1.87;100.00
22047;BME280;11187;49.412;20.956;2023-04-08T04:21:52;95226.22;;;-1.85;100.00
22047;BME280;11187;49.412;20.956;2023-04-08T04:24:25;95229.69;;;-1.81;100.00
22047;BME280;11187;49.412;20.956;2023-04-08T04:27:19;95235.59;;;-1.79;100.00
22047;BME280;11187;49.412;20.956;2023-04-08T04:30:13;95235.59;;;-1.79;100.00
22047;BME280;11187;49.412;20.956;2023-04-08T04:33:07;95233.88;;;-1.80;100.00
22047;BME280;11187;49.412;20.956;2023-04-08T04:35:40;95242.22;;;-1.81;100.00
22047;BME280;11187;49.412;20.956;2023-04-08T04:38:34;95249.69;;;-1.83;100.00
22047;BME280;11187;49.412;20.956;2023-04-08T04:41:31;95254.66;;;-1.84;100.00
22047;BME280;11187;49.412;20.956;2023-04-08T04:44:05;95256.28;;;-1.86;100.00
22047;BME280;11187;49.412;20.956;2023-04-08T04:46:59;95263.84;;;-1.85;100.00
22047;BME280;11187;49.412;20.956;2023-04-08T04:49:53;95259.81;;;-1.80;100.00
22047;BME280;11187;49.412;20.956;2023-04-08T04:52:26;95264.13;;;-1.76;100.00
22047;BME280;11187;49.412;20.956;2023-04-08T04:55:13;95268.38;;;-1.75;100.00
22047;BME280;11187;49.412;20.956;2023-04-08T04:57:48;95266.59;;;-1.77;100.00
22047;BME280;11187;49.412;20.956;2023-04-08T05:00:42;95271.72;;;-1.74;100.00
22047;BME280;11187;49.412;20.956;2023-04-08T05:03:15;95273.38;;;-1.75;100.00
22047;BME280;11187;49.412;20.956;2023-04-08T05:06:02;95271.75;;;-1.73;100.00
22047;BME280;11187;49.412;20.956;2023-04-08T05:08:35;95276.88;;;-1.70;100.00
22047;BME280;11187;49.412;20.956;2023-04-08T05:11:22;95272.91;;;-1.63;100.00
22047;BME280;11187;49.412;20.956;2023-04-08T05:13:55;95275.78;;;-1.51;100.00
22047;BME280;11187;49.412;20.956;2023-04-08T05:16:44;95274.78;;;-1.29;100.00
22047;BME280;11187;49.412;20.956;2023-04-08T05:19:18;95282.84;;;-1.10;100.00
22047;BME280;11187;49.412;20.956;2023-04-08T05:22:05;95279.81;;;-0.98;100.00
22047;BME280;11187;49.412;20.956;2023-04-08T05:24:38;95279.44;;;-0.82;100.00
22047;BME280;11187;49.412;20.956;2023-04-08T05:27:25;95278.31;;;-0.61;100.00
22047;BME280;11187;49.412;20.956;2023-04-08T05:29:59;95283.09;;;-0.40;100.00
22047;BME280;11187;49.412;20.956;2023-04-08T05:32:46;95282.00;;;-0.17;100.00
22047;BME280;11187;49.412;20.956;2023-04-08T05:35:19;95285.06;;;0.05;100.00
22047;BME280;11187;49.412;20.956;2023-04-08T05:38:06;95290.66;;;0.28;100.00
22047;BME280;11187;49.412;20.956;2023-04-08T05:40:39;95297.78;;;0.46;100.00
22047;BME280;11187;49.412;20.956;2023-04-08T05:43:26;95293.16;;;0.64;100.00
22047;BME280;11187;49.412;20.956;2023-04-08T05:45:59;95288.53;;;0.82;100.00
22047;BME280;11187;49.412;20.956;2023-04-08T05:48:53;95287.19;;;0.98;100.00
22047;BME280;11187;49.412;20.956;2023-04-08T05:51:47;95272.38;;;1.14;100.00
22047;BME280;11187;49.412;20.956;2023-04-08T05:54:23;95277.78;;;1.32;100.00
22047;BME280;11187;49.412;20.956;2023-04-08T05:57:10;95280.69;;;1.52;100.00
22047;BME280;11187;49.412;20.956;2023-04-08T05:59:43;95280.97;;;1.66;100.00
22047;BME280;11187;49.412;20.956;2023-04-08T06:02:30;95276.28;;;1.87;100.00
22047;BME280;11187;49.412;20.956;2023-04-08T06:05:04;95280.00;;;2.08;100.00
22047;BME280;11187;49.412;20.956;2023-04-08T06:07:51;95281.13;;;2.27;100.00
22047;BME280;11187;49.412;20.956;2023-04-08T06:10:24;95278.06;;;2.43;100.00
22047;BME280;11187;49.412;20.956;2023-04-08T06:13:18;95275.00;;;2.64;100.00
22047;BME280;11187;49.412;20.956;2023-04-08T06:16:13;95269.22;;;2.73;100.00
22047;BME280;11187;49.412;20.956;2023-04-08T06:18:48;95278.78;;;2.94;100.00
22047;BME280;11187;49.412;20.956;2023-04-08T06:21:35;95281.44;;;3.03;100.00
22047;BME280;11187;49.412;20.956;2023-04-08T06:24:08;95279.16;;;3.23;100.00
22047;BME280;11187;49.412;20.956;2023-04-08T06:27:02;95284.47;;;3.43;100.00
22047;BME280;11187;49.412;20.956;2023-04-08T06:29:35;95278.69;;;3.55;100.00
22047;BME280;11187;49.412;20.956;2023-04-08T06:32:22;95281.44;;;3.75;100.00
22047;BME280;11187;49.412;20.956;2023-04-08T06:34:55;95274.88;;;3.94;100.00
22047;BME280;11187;49.412;20.956;2023-04-08T06:37:49;95271.59;;;4.03;100.00
22047;BME280;11187;49.412;20.956;2023-04-08T06:40:22;95281.78;;;4.12;100.00
22047;BME280;11187;49.412;20.956;2023-04-08T06:43:09;95286.09;;;4.21;100.00
22047;BME280;11187;49.412;20.956;2023-04-08T06:45:42;95303.00;;;4.22;100.00
22047;BME280;11187;49.412;20.956;2023-04-08T06:48:36;95302.06;;;4.12;100.00
22047;BME280;11187;49.412;20.956;2023-04-08T06:51:30;95297.81;;;4.09;100.00
22047;BME280;11187;49.412;20.956;2023-04-08T06:54:03;95302.84;;;4.06;100.00
22047;BME280;11187;49.412;20.956;2023-04-08T06:56:57;95299.50;;;4.07;100.00
22047;BME280;11187;49.412;20.956;2023-04-08T06:59:53;95300.34;;;4.11;100.00
22047;BME280;11187;49.412;20.956;2023-04-08T07:02:47;95296.19;;;4.16;100.00
22047;BME280;11187;49.412;20.956;2023-04-08T07:05:41;95302.16;;;4.24;100.00
22047;BME280;11187;49.412;20.956;2023-04-08T07:08:17;95297.09;;;4.21;100.00
22047;BME280;11187;49.412;20.956;2023-04-08T07:11:04;95304.69;;;4.21;100.00
22047;BME280;11187;49.412;20.956;2023-04-08T07:13:37;95303.84;;;4.24;99.10
22047;BME280;11187;49.412;20.956;2023-04-08T07:16:24;95314.00;;;4.27;98.97
22047;BME280;11187;49.412;20.956;2023-04-08T07:18:57;95319.09;;;4.25;98.93
22047;BME280;11187;49.412;20.956;2023-04-08T07:21:44;95320.72;;;4.18;99.74
22047;BME280;11187;49.412;20.956;2023-04-08T07:24:17;95325.72;;;4.15;100.00
22047;BME280;11187;49.412;20.956;2023-04-08T07:27:07;95320.66;;;4.12;99.69
22047;BME280;11187;49.412;20.956;2023-04-08T07:29:40;95329.13;;;4.16;99.84
22047;BME280;11187;49.412;20.956;2023-04-08T07:32:34;95327.41;;;4.12;99.48
22047;BME280;11187;49.412;20.956;2023-04-08T07:35:32;95329.09;;;4.13;99.65
22047;BME280;11187;49.412;20.956;2023-04-08T07:38:05;95333.34;;;4.17;99.94
22047;BME280;11187;49.412;20.956;2023-04-08T07:40:52;95330.88;;;4.22;99.52
22047;BME280;11187;49.412;20.956;2023-04-08T07:43:25;95330.94;;;4.31;99.82
22047;BME280;11187;49.412;20.956;2023-04-08T07:46:13;95329.34;;;4.39;99.50
22047;BME280;11187;49.412;20.956;2023-04-08T07:48:46;95331.13;;;4.49;98.55
22047;BME280;11187;49.412;20.956;2023-04-08T07:51:33;95331.22;;;4.63;98.54
22047;BME280;11187;49.412;20.956;2023-04-08T07:54:06;95331.34;;;4.77;97.82
22047;BME280;11187;49.412;20.956;2023-04-08T07:56:59;95322.19;;;4.96;98.43
22047;BME280;11187;49.412;20.956;2023-04-08T07:59:33;95323.94;;;5.05;98.29
22047;BME280;11187;49.412;20.956;2023-04-08T08:02:20;95327.34;;;5.13;97.84
22047;BME280;11187;49.412;20.956;2023-04-08T08:04:53;95329.03;;;5.12;95.14
22047;BME280;11187;49.412;20.956;2023-04-08T08:07:43;95320.56;;;5.10;96.01
22047;BME280;11187;49.412;20.956;2023-04-08T08:10:16;95323.13;;;5.09;95.07
22047;BME280;11187;49.412;20.956;2023-04-08T08:13:04;95323.03;;;4.98;93.65
22047;BME280;11187;49.412;20.956;2023-04-08T08:15:38;95328.94;;;4.97;94.97
22047;BME280;11187;49.412;20.956;2023-04-08T08:18:25;95332.25;;;4.85;95.12
22047;BME280;11187;49.412;20.956;2023-04-08T08:21:00;95322.13;;;4.87;95.71
22047;BME280;11187;49.412;20.956;2023-04-08T08:23:47;95330.56;;;4.87;94.82
22047;BME280;11187;49.412;20.956;2023-04-08T08:26:21;95336.47;;;4.81;93.82
22047;BME280;11187;49.412;20.956;2023-04-08T08:29:17;95338.06;;;4.72;94.68
22047;BME280;11187;49.412;20.956;2023-04-08T08:32:11;95335.50;;;4.66;94.80
22047;BME280;11187;49.412;20.956;2023-04-08T08:34:47;95337.13;;;4.59;94.81
22047;BME280;11187;49.412;20.956;2023-04-08T08:37:35;95337.09;;;4.56;95.96
22047;BME280;11187;49.412;20.956;2023-04-08T08:40:10;95342.16;;;4.54;96.05
22047;BME280;11187;49.412;20.956;2023-04-08T08:42:57;95338.81;;;4.60;96.53
22047;BME280;11187;49.412;20.956;2023-04-08T08:45:33;95340.53;;;4.61;95.76
22047;BME280;11187;49.412;20.956;2023-04-08T08:48:33;95342.25;;;4.70;95.21
22047;BME280;11187;49.412;20.956;2023-04-08T08:51:27;95339.84;;;4.82;96.22
22047;BME280;11187;49.412;20.956;2023-04-08T08:54:23;95339.88;;;4.87;95.59
22047;BME280;11187;49.412;20.956;2023-04-08T08:56:56;95346.59;;;4.83;95.80
22047;BME280;11187;49.412;20.956;2023-04-08T08:59:51;95355.91;;;4.82;96.31
22047;BME280;11187;49.412;20.956;2023-04-08T09:02:46;95357.56;;;4.80;95.30
22047;BME280;11187;49.412;20.956;2023-04-08T09:05:20;95352.50;;;4.84;95.75
22047;BME280;11187;49.412;20.956;2023-04-08T09:08:22;95350.81;;;4.81;94.94
22047;BME280;11187;49.412;20.956;2023-04-08T09:11:10;95357.56;;;4.80;95.19
22047;BME280;11187;49.412;20.956;2023-04-08T09:14:16;95360.06;;;4.73;96.07
22047;BME280;11187;49.412;20.956;2023-04-08T09:16:53;95355.81;;;4.70;95.81
22047;BME280;11187;49.412;20.956;2023-04-08T09:20:04;95355.84;;;4.76;96.10
22047;BME280;11187;49.412;20.956;2023-04-08T09:23:00;95355.13;;;4.94;95.70
22047;BME280;11187;49.412;20.956;2023-04-08T09:25:34;95355.25;;;5.07;95.27
22047;BME280;11187;49.412;20.956;2023-04-08T09:28:21;95356.97;;;5.17;94.84
22047;BME280;11187;49.412;20.956;2023-04-08T09:30:54;95356.13;;;5.13;93.54
22047;BME280;11187;49.412;20.956;2023-04-08T09:33:41;95352.72;;;5.10;94.26
22047;BME280;11187;49.412;20.956;2023-04-08T09:36:16;95356.09;;;5.07;93.90
22047;BME280;11187;49.412;20.956;2023-04-08T09:39:03;95362.00;;;5.08;94.65
22047;BME280;11187;49.412;20.956;2023-04-08T09:41:38;95359.50;;;5.14;94.39
22047;BME280;11187;49.412;20.956;2023-04-08T09:44:34;95373.00;;;5.07;92.22
22047;BME280;11187;49.412;20.956;2023-04-08T09:47:30;95356.94;;;5.09;92.90
22047;BME280;11187;49.412;20.956;2023-04-08T09:50:31;95360.38;;;5.22;93.31
22047;BME280;11187;49.412;20.956;2023-04-08T09:53:37;95350.34;;;5.39;94.09
22047;BME280;11187;49.412;20.956;2023-04-08T09:56:40;95355.47;;;5.47;94.85
22047;BME280;11187;49.412;20.956;2023-04-08T09:59:37;95347.88;;;5.53;94.60
22047;BME280;11187;49.412;20.956;2023-04-08T10:02:14;95350.47;;;5.63;93.87
22047;BME280;11187;49.412;20.956;2023-04-08T10:05:11;95353.94;;;5.79;94.32
22047;BME280;11187;49.412;20.956;2023-04-08T10:07:46;95353.06;;;5.83;92.47
22047;BME280;11187;49.412;20.956;2023-04-08T10:10:37;95358.13;;;5.79;92.27
22047;BME280;11187;49.412;20.956;2023-04-08T10:13:13;95356.41;;;5.69;91.89
22047;BME280;11187;49.412;20.956;2023-04-08T10:16:21;95361.53;;;5.76;93.13
22047;BME280;11187;49.412;20.956;2023-04-08T10:18:56;95359.06;;;5.95;92.14
22047;BME280;11187;49.412;20.956;2023-04-08T10:21:43;95358.28;;;6.13;92.01
22047;BME280;11187;49.412;20.956;2023-04-08T10:24:21;95359.16;;;6.16;92.70
22047;BME280;11187;49.412;20.956;2023-04-08T10:27:37;95352.38;;;6.17;92.07
22047;BME280;11187;49.412;20.956;2023-04-08T10:36:11;95359.09;;;6.01;92.35
22047;BME280;11187;49.412;20.956;2023-04-08T10:38:58;95366.66;;;5.90;91.82
22047;BME280;11187;49.412;20.956;2023-04-08T10:41:31;95359.84;;;5.83;92.83
22047;BME280;11187;49.412;20.956;2023-04-08T10:44:27;95359.81;;;5.74;92.64
22047;BME280;11187;49.412;20.956;2023-04-08T10:47:00;95366.56;;;5.67;92.81
22047;BME280;11187;49.412;20.956;2023-04-08T10:49:47;95360.59;;;5.57;93.09
22047;BME280;11187;49.412;20.956;2023-04-08T10:52:21;95365.66;;;5.50;94.60
22047;BME280;11187;49.412;20.956;2023-04-08T10:55:15;95360.56;;;5.48;95.11
22047;BME280;11187;49.412;20.956;2023-04-08T10:57:51;95361.41;;;5.53;96.62
22047;BME280;11187;49.412;20.956;2023-04-08T11:00:39;95360.56;;;5.53;95.63
22047;BME280;11187;49.412;20.956;2023-04-08T11:03:12;95367.34;;;5.48;96.39
22047;BME280;11187;49.412;20.956;2023-04-08T11:06:00;95376.56;;;5.38;96.79
22047;BME280;11187;49.412;20.956;2023-04-08T11:08:35;95371.47;;;5.33;96.70
22047;BME280;11187;49.412;20.956;2023-04-08T11:11:23;95379.94;;;5.29;97.25
22047;BME280;11187;49.412;20.956;2023-04-08T11:14:02;95373.94;;;5.21;96.62
22047;BME280;11187;49.412;20.956;2023-04-08T11:16:56;95376.44;;;5.13;97.84
22047;BME280;11187;49.412;20.956;2023-04-08T11:19:53;95373.78;;;4.99;98.21
22047;BME280;11187;49.412;20.956;2023-04-08T11:22:27;95379.69;;;4.97;98.73
22047;BME280;11187;49.412;20.956;2023-04-08T11:25:21;95375.44;;;4.91;99.06
22047;BME280;11187;49.412;20.956;2023-04-08T11:27:54;95377.91;;;4.88;98.77
22047;BME280;11187;49.412;20.956;2023-04-08T11:30:41;95378.69;;;4.75;99.60
22047;BME280;11187;49.412;20.956;2023-04-08T11:33:17;95376.13;;;4.73;99.86
22047;BME280;11187;49.412;20.956;2023-04-08T11:36:04;95378.66;;;4.70;100.00
22047;BME280;11187;49.412;20.956;2023-04-08T11:38:38;95385.41;;;4.71;100.00
22047;BME280;11187;49.412;20.956;2023-04-08T11:41:35;95381.94;;;4.62;100.00
22047;BME280;11187;49.412;20.956;2023-04-08T11:44:17;95386.16;;;4.59;100.00
22047;BME280;11187;49.412;20.956;2023-04-08T11:47:13;95389.56;;;4.62;100.00
22047;BME280;11187;49.412;20.956;2023-04-08T11:50:09;95387.00;;;4.63;100.00
22047;BME280;11187;49.412;20.956;2023-04-08T11:53:23;95392.09;;;4.62;100.00
22047;BME280;11187;49.412;20.956;2023-04-08T11:56:21;95382.72;;;4.56;100.00
22047;BME280;11187;49.412;20.956;2023-04-08T11:59:00;95386.91;;;4.48;100.00
22047;BME280;11187;49.412;20.956;2023-04-08T12:01:46;95382.56;;;4.37;100.00
22047;BME280;11187;49.412;20.956;2023-04-08T12:04:19;95390.06;;;4.28;100.00
22047;BME280;11187;49.412;20.956;2023-04-08T12:07:06;95388.34;;;4.24;100.00
22047;BME280;11187;49.412;20.956;2023-04-08T12:09:39;95387.41;;;4.17;100.00
22047;BME280;11187;49.412;20.956;2023-04-08T12:12:26;95395.84;;;4.13;100.00
22047;BME280;11187;49.412;20.956;2023-04-08T12:14:59;95394.16;;;4.15;100.00
22047;BME280;11187;49.412;20.956;2023-04-08T12:17:53;95392.50;;;4.16;100.00
22047;BME280;11187;49.412;20.956;2023-04-08T12:20:49;95391.63;;;4.15;100.00
22047;BME280;11187;49.412;20.956;2023-04-08T12:23:43;95394.09;;;4.11;100.00
22047;BME280;11187;49.412;20.956;2023-04-08T12:26:17;95390.72;;;4.09;100.00
22047;BME280;11187;49.412;20.956;2023-04-08T12:29:11;95395.78;;;4.09;100.00
22047;BME280;11187;49.412;20.956;2023-04-08T12:32:05;95392.38;;;4.07;100.00
22047;BME280;11187;49.412;20.956;2023-04-08T12:34:38;95393.25;;;4.09;100.00
22047;BME280;11187;49.412;20.956;2023-04-08T12:37:25;95392.38;;;4.07;100.00
22047;BME280;11187;49.412;20.956;2023-04-08T12:39:59;95390.69;;;4.07;100.00
22047;BME280;11187;49.412;20.956;2023-04-08T12:42:53;95388.97;;;4.06;100.00
22047;BME280;11187;49.412;20.956;2023-04-08T12:45:26;95390.66;;;4.06;100.00
22047;BME280;11187;49.412;20.956;2023-04-08T12:48:20;95383.13;;;4.09;100.00
22047;BME280;11187;49.412;20.956;2023-04-08T12:51:14;95386.53;;;4.15;100.00
22047;BME280;11187;49.412;20.956;2023-04-08T12:54:08;95382.41;;;4.24;100.00
22047;BME280;11187;49.412;20.956;2023-04-08T12:56:42;95389.25;;;4.29;100.00
22047;BME280;11187;49.412;20.956;2023-04-08T12:59:29;95389.25;;;4.29;100.00
22047;BME280;11187;49.412;20.956;2023-04-08T13:02:03;95389.25;;;4.31;100.00
22047;BME280;11187;49.412;20.956;2023-04-08T13:04:50;95392.66;;;4.33;100.00
22047;BME280;11187;49.412;20.956;2023-04-08T13:07:25;95380.81;;;4.33;100.00
22047;BME280;11187;49.412;20.956;2023-04-08T13:10:12;95386.78;;;4.37;100.00
22047;BME280;11187;49.412;20.956;2023-04-08T13:12:45;95387.69;;;4.41;100.00
22047;BME280;11187;49.412;20.956;2023-04-08T13:15:32;95386.81;;;4.40;100.00
22047;BME280;11187;49.412;20.956;2023-04-08T13:18:05;95388.50;;;4.43;100.00
22047;BME280;11187;49.412;20.956;2023-04-08T13:20:52;95388.53;;;4.44;100.00
22047;BME280;11187;49.412;20.956;2023-04-08T13:23:26;95388.56;;;4.46;100.00
22047;BME280;11187;49.412;20.956;2023-04-08T13:26:13;95387.72;;;4.45;100.00
22047;BME280;11187;49.412;20.956;2023-04-08T13:28:46;95382.63;;;4.47;100.00
22047;BME280;11187;49.412;20.956;2023-04-08T13:31:41;95384.31;;;4.45;100.00
22047;BME280;11187;49.412;20.956;2023-04-08T13:34:36;95386.91;;;4.48;100.00
22047;BME280;11187;49.412;20.956;2023-04-08T13:37:30;95387.75;;;4.48;100.00
22047;BME280;11187;49.412;20.956;2023-04-08T13:40:04;95390.31;;;4.53;100.00
22047;BME280;11187;49.412;20.956;2023-04-08T13:42:52;95390.34;;;4.57;100.00
22047;BME280;11187;49.412;20.956;2023-04-08T13:45:25;95386.16;;;4.59;100.00
22047;BME280;11187;49.412;20.956;2023-04-08T13:48:12;95389.56;;;4.62;100.00
22047;BME280;11187;49.412;20.956;2023-04-08T13:51:06;95393.78;;;4.64;100.00
22047;BME280;11187;49.412;20.956;2023-04-08T13:53:39;95391.28;;;4.66;100.00
22047;BME280;11187;49.412;20.956;2023-04-08T13:56:26;95393.00;;;4.71;100.00
22047;BME280;11187;49.412;20.956;2023-04-08T13:58:59;95398.94;;;4.70;100.00
22047;BME280;11187;49.412;20.956;2023-04-08T14:01:53;95392.97;;;4.67;100.00
22047;BME280;11187;49.412;20.956;2023-04-08T14:04:48;95397.22;;;4.69;100.00
22047;BME280;11187;49.412;20.956;2023-04-08T14:07:22;95392.19;;;4.74;100.00
22047;BME280;11187;49.412;20.956;2023-04-08T14:10:10;95396.44;;;4.75;100.00
22047;BME280;11187;49.412;20.956;2023-04-08T14:12:43;95398.16;;;4.77;100.00
22047;BME280;11187;49.412;20.956;2023-04-08T14:15:37;95399.84;;;4.80;100.00
22047;BME280;11187;49.412;20.956;2023-04-08T14:18:32;95392.28;;;4.88;100.00
22047;BME280;11187;49.412;20.956;2023-04-08T14:21:05;95395.72;;;4.91;100.00
22047;BME280;11187;49.412;20.956;2023-04-08T14:23:54;95390.66;;;4.93;100.00
22047;BME280;11187;49.412;20.956;2023-04-08T14:26:28;95396.63;;;5.01;100.00
22047;BME280;11187;49.412;20.956;2023-04-08T14:29:22;95400.03;;;5.03;100.00